sensor_id;sensor_type;location;lat;lon;timestamp;pressure;altitude;pressure_sealevel;temperature;humidity
38786;BME280;24535;45.508;12.252;2023-05-23T00:01:16;101180.56;;;23.35;51.20
38786;BME280;24535;45.508;12.252;2023-05-23T00:03:42;101184.28;;;23.34;51.16
38786;BME280;24535;45.508;12.252;2023-05-23T00:06:08;101188.16;;;23.32;50.83
38786;BME280;24535;45.508;12.252;2023-05-23T00:08:34;101182.13;;;23.30;50.98
38786;BME280;24535;45.508;12.252;2023-05-23T00:10:59;101190.53;;;23.27;50.83
38786;BME280;24535;45.508;12.252;2023-05-23T00:13:24;101187.16;;;23.25;51.27
38786;BME280;24535;45.508;12.252;2023-05-23T00:15:50;101186.53;;;23.23;51.45
38786;BME280;24535;45.508;12.252;2023-05-23T00:18:18;101194.09;;;23.19;51.39
38786;BME280;24535;45.508;12.252;2023-05-23T00:20:48;101200.66;;;23.16;51.24
38786;BME280;24535;45.508;12.252;2023-05-23T00:23:15;101200.16;;;23.13;51.32
38786;BME280;24535;45.508;12.252;2023-05-23T00:25:44;101197.84;;;23.10;51.03
38786;BME280;24535;45.508;12.252;2023-05-23T00:28:31;101203.34;;;23.08;51.00
38786;BME280;24535;45.508;12.252;2023-05-23T00:30:57;101200.19;;;23.05;50.80
38786;BME280;24535;45.508;12.252;2023-05-23T00:33:22;101194.16;;;23.03;51.57
38786;BME280;24535;45.508;12.252;2023-05-23T00:46:38;101191.16;;;22.98;51.71
38786;BME280;24535;45.508;12.252;2023-05-23T00:49:23;101193.84;;;22.98;51.21
38786;BME280;24535;45.508;12.252;2023-05-23T00:51:48;101196.69;;;22.96;51.59
38786;BME280;24535;45.508;12.252;2023-05-23T00:54:30;101196.19;;;22.92;51.26
38786;BME280;24535;45.508;12.252;2023-05-23T00:59:57;101196.03;;;22.86;51.83
38786;BME280;24535;45.508;12.252;2023-05-23T01:05:00;101195.53;;;22.82;51.98
38786;BME280;24535;45.508;12.252;2023-05-23T01:13:55;101204.09;;;22.78;52.03
38786;BME280;24535;45.508;12.252;2023-05-23T01:25:06;101193.38;;;22.69;52.50
38786;BME280;24535;45.508;12.252;2023-05-23T01:27:45;101193.53;;;22.68;52.08
38786;BME280;24535;45.508;12.252;2023-05-23T01:30:12;101197.22;;;22.67;51.92
38786;BME280;24535;45.508;12.252;2023-05-23T01:32:40;101193.19;;;22.63;51.86
38786;BME280;24535;45.508;12.252;2023-05-23T01:35:07;101195.06;;;22.62;52.37
38786;BME280;24535;45.508;12.252;2023-05-23T01:37:33;101186.31;;;22.60;52.71
38786;BME280;24535;45.508;12.252;2023-05-23T01:39:58;101187.50;;;22.58;52.74
38786;BME280;24535;45.508;12.252;2023-05-23T01:45:26;101190.53;;;22.55;52.41
38786;BME280;24535;45.508;12.252;2023-05-23T01:47:56;101189.00;;;22.52;52.35
38786;BME280;24535;45.508;12.252;2023-05-23T01:50:21;101189.38;;;22.49;52.45
38786;BME280;24535;45.508;12.252;2023-05-23T01:52:50;101184.31;;;22.46;52.69
38786;BME280;24535;45.508;12.252;2023-05-23T01:55:19;101181.81;;;22.44;52.75
38786;BME280;24535;45.508;12.252;2023-05-23T01:57:54;101180.97;;;22.44;52.69
38786;BME280;24535;45.508;12.252;2023-05-23T02:00:21;101181.13;;;22.42;52.88
38786;BME280;24535;45.508;12.252;2023-05-23T02:02:46;101179.47;;;22.41;53.15
38786;BME280;24535;45.508;12.252;2023-05-23T02:05:11;101175.25;;;22.39;53.44
38786;BME280;24535;45.508;12.252;2023-05-23T02:07:37;101175.59;;;22.36;53.12
38786;BME280;24535;45.508;12.252;2023-05-23T02:10:06;101170.59;;;22.33;53.08
38786;BME280;24535;45.508;12.252;2023-05-23T02:12:32;101169.91;;;22.31;53.55
38786;BME280;24535;45.508;12.252;2023-05-23T02:15:00;101172.75;;;22.29;53.12
38786;BME280;24535;45.508;12.252;2023-05-23T02:17:25;101171.25;;;22.27;53.16
38786;BME280;24535;45.508;12.252;2023-05-23T02:19:51;101167.91;;;22.25;53.57
38786;BME280;24535;45.508;12.252;2023-05-23T02:22:16;101161.84;;;22.23;53.77
38786;BME280;24535;45.508;12.252;2023-05-23T02:24:41;101157.66;;;22.20;53.49
38786;BME280;24535;45.508;12.252;2023-05-23T02:27:07;101165.03;;;22.18;53.83
38786;BME280;24535;45.508;12.252;2023-05-23T02:29:32;101166.22;;;22.15;54.21
38786;BME280;24535;45.508;12.252;2023-05-23T02:31:57;101169.91;;;22.14;53.93
38786;BME280;24535;45.508;12.252;2023-05-23T02:34:23;101169.22;;;22.12;54.01
38786;BME280;24535;45.508;12.252;2023-05-23T02:45:23;101175.41;;;22.05;54.72
38786;BME280;24535;45.508;12.252;2023-05-23T02:47:48;101180.09;;;22.03;54.28
38786;BME280;24535;45.508;12.252;2023-05-23T02:50:23;101190.00;;;22.02;54.59
38786;BME280;24535;45.508;12.252;2023-05-23T02:52:48;101185.63;;;22.01;54.94
38786;BME280;24535;45.508;12.252;2023-05-23T02:55:13;101193.84;;;22.00;55.22
38786;BME280;24535;45.508;12.252;2023-05-23T02:57:39;101187.81;;;21.97;54.98
38786;BME280;24535;45.508;12.252;2023-05-23T03:00:08;101184.28;;;21.97;55.29
38786;BME280;24535;45.508;12.252;2023-05-23T03:05:31;101177.06;;;21.97;54.90
38786;BME280;24535;45.508;12.252;2023-05-23T03:11:01;101179.06;;;21.95;54.83
38786;BME280;24535;45.508;12.252;2023-05-23T03:13:27;101173.88;;;21.94;55.05
38786;BME280;24535;45.508;12.252;2023-05-23T03:15:52;101171.38;;;21.92;55.08
38786;BME280;24535;45.508;12.252;2023-05-23T03:18:17;101177.72;;;21.91;55.16
38786;BME280;24535;45.508;12.252;2023-05-23T03:20:43;101168.00;;;21.90;55.44
38786;BME280;24535;45.508;12.252;2023-05-23T03:23:11;101173.56;;;21.89;55.17
38786;BME280;24535;45.508;12.252;2023-05-23T03:25:36;101178.09;;;21.88;55.79
38786;BME280;24535;45.508;12.252;2023-05-23T03:28:02;101177.41;;;21.86;55.46
38786;BME280;24535;45.508;12.252;2023-05-23T03:30:27;101180.41;;;21.83;55.54
38786;BME280;24535;45.508;12.252;2023-05-23T03:32:52;101180.56;;;21.82;55.39
38786;BME280;24535;45.508;12.252;2023-05-23T03:35:21;101172.72;;;21.80;56.02
38786;BME280;24535;45.508;12.252;2023-05-23T03:37:46;101169.19;;;21.80;55.63
38786;BME280;24535;45.508;12.252;2023-05-23T03:40:11;101172.84;;;21.79;55.73
38786;BME280;24535;45.508;12.252;2023-05-23T03:42:38;101176.38;;;21.79;55.59
38786;BME280;24535;45.508;12.252;2023-05-23T03:45:03;101175.38;;;21.80;55.63
38786;BME280;24535;45.508;12.252;2023-05-23T03:47:29;101176.38;;;21.79;55.77
38786;BME280;24535;45.508;12.252;2023-05-23T03:49:54;101170.16;;;21.79;55.96
38786;BME280;24535;45.508;12.252;2023-05-23T03:52:20;101180.06;;;21.78;55.88
38786;BME280;24535;45.508;12.252;2023-05-23T03:54:45;101187.09;;;21.79;56.15
38786;BME280;24535;45.508;12.252;2023-05-23T03:57:10;101185.44;;;21.78;56.15
38786;BME280;24535;45.508;12.252;2023-05-23T03:59:36;101181.72;;;21.79;55.68
38786;BME280;24535;45.508;12.252;2023-05-23T04:02:01;101184.41;;;21.79;55.78
38786;BME280;24535;45.508;12.252;2023-05-23T04:04:27;101182.75;;;21.78;55.81
38786;BME280;24535;45.508;12.252;2023-05-23T04:06:52;101176.38;;;21.79;56.09
38786;BME280;24535;45.508;12.252;2023-05-23T04:09:17;101178.22;;;21.79;56.11
38786;BME280;24535;45.508;12.252;2023-05-23T04:11:45;101178.91;;;21.81;55.68
38786;BME280;24535;45.508;12.252;2023-05-23T04:14:11;101185.94;;;21.82;56.07
38786;BME280;24535;45.508;12.252;2023-05-23T04:16:37;101194.81;;;21.82;55.87
38786;BME280;24535;45.508;12.252;2023-05-23T04:19:20;101194.50;;;21.85;56.25
38786;BME280;24535;45.508;12.252;2023-05-23T04:21:54;101194.31;;;21.87;55.62
38786;BME280;24535;45.508;12.252;2023-05-23T04:24:20;101203.72;;;21.91;55.86
38786;BME280;24535;45.508;12.252;2023-05-23T04:26:45;101200.91;;;21.92;55.60
38786;BME280;24535;45.508;12.252;2023-05-23T04:29:10;101196.34;;;21.93;55.55
38786;BME280;24535;45.508;12.252;2023-05-23T04:31:36;101195.53;;;21.92;55.73
38786;BME280;24535;45.508;12.252;2023-05-23T04:34:05;101199.19;;;21.91;55.43
38786;BME280;24535;45.508;12.252;2023-05-23T04:36:32;101197.38;;;21.92;56.14
38786;BME280;24535;45.508;12.252;2023-05-23T04:38:57;101192.66;;;21.94;56.01
38786;BME280;24535;45.508;12.252;2023-05-23T04:41:22;101194.34;;;21.95;55.62
38786;BME280;24535;45.508;12.252;2023-05-23T04:46:42;101192.03;;;22.00;56.27
38786;BME280;24535;45.508;12.252;2023-05-23T04:49:09;101192.69;;;22.02;55.65
38786;BME280;24535;45.508;12.252;2023-05-23T04:51:34;101195.88;;;22.06;55.15
38786;BME280;24535;45.508;12.252;2023-05-23T04:54:00;101193.38;;;22.04;55.10
38786;BME280;24535;45.508;12.252;2023-05-23T04:56:25;101198.22;;;22.09;55.58
38786;BME280;24535;45.508;12.252;2023-05-23T04:58:54;101199.59;;;22.13;55.62
38786;BME280;24535;45.508;12.252;2023-05-23T05:01:20;101197.25;;;22.18;55.84
38786;BME280;24535;45.508;12.252;2023-05-23T05:03:48;101195.06;;;22.21;55.84
38786;BME280;24535;45.508;12.252;2023-05-23T05:09:07;101206.31;;;22.33;55.89
38786;BME280;24535;45.508;12.252;2023-05-23T05:11:32;101197.56;;;22.39;55.39
38786;BME280;24535;45.508;12.252;2023-05-23T05:13:57;101205.13;;;22.44;55.84
38786;BME280;24535;45.508;12.252;2023-05-23T05:16:22;101201.09;;;22.48;55.57
38786;BME280;24535;45.508;12.252;2023-05-23T05:18:48;101197.25;;;22.51;55.58
38786;BME280;24535;45.508;12.252;2023-05-23T05:21:13;101197.75;;;22.54;55.23
38786;BME280;24535;45.508;12.252;2023-05-23T05:23:38;101196.41;;;22.58;55.14
38786;BME280;24535;45.508;12.252;2023-05-23T05:26:04;101197.91;;;22.61;54.99
38786;BME280;24535;45.508;12.252;2023-05-23T05:28:29;101197.22;;;22.67;55.26
38786;BME280;24535;45.508;12.252;2023-05-23T05:37:02;101192.00;;;22.82;54.68
38786;BME280;24535;45.508;12.252;2023-05-23T05:42:32;101186.94;;;22.95;54.99
38786;BME280;24535;45.508;12.252;2023-05-23T05:44:57;101180.22;;;22.99;54.83
38786;BME280;24535;45.508;12.252;2023-05-23T05:50:26;101182.53;;;23.10;54.77
38786;BME280;24535;45.508;12.252;2023-05-23T05:52:51;101183.19;;;23.12;54.67
38786;BME280;24535;45.508;12.252;2023-05-23T05:58:03;101178.59;;;23.21;54.70
38786;BME280;24535;45.508;12.252;2023-05-23T06:00:28;101172.91;;;23.24;54.86
38786;BME280;24535;45.508;12.252;2023-05-23T06:02:54;101178.75;;;23.28;54.57
38786;BME280;24535;45.508;12.252;2023-05-23T06:11:06;101174.47;;;23.41;54.16
38786;BME280;24535;45.508;12.252;2023-05-23T06:13:31;101168.94;;;23.43;53.93
38786;BME280;24535;45.508;12.252;2023-05-23T06:18:59;101178.81;;;23.51;53.87
38786;BME280;24535;45.508;12.252;2023-05-23T06:21:25;101185.34;;;23.56;53.61
38786;BME280;24535;45.508;12.252;2023-05-23T06:26:53;101180.94;;;23.63;53.39
38786;BME280;24535;45.508;12.252;2023-05-23T06:29:18;101183.31;;;23.66;53.37
38786;BME280;24535;45.508;12.252;2023-05-23T06:31:44;101183.81;;;23.70;53.27
38786;BME280;24535;45.508;12.252;2023-05-23T06:34:09;101186.09;;;23.73;53.11
38786;BME280;24535;45.508;12.252;2023-05-23T06:42:57;101193.59;;;23.86;53.08
38786;BME280;24535;45.508;12.252;2023-05-23T06:45:22;101194.25;;;23.88;52.72
38786;BME280;24535;45.508;12.252;2023-05-23T06:47:47;101187.84;;;23.89;52.75
38786;BME280;24535;45.508;12.252;2023-05-23T06:50:13;101187.50;;;23.92;52.57
38786;BME280;24535;45.508;12.252;2023-05-23T06:58:31;101188.75;;;24.04;52.70
38786;BME280;24535;45.508;12.252;2023-05-23T07:00:57;101186.72;;;24.06;52.46
38786;BME280;24535;45.508;12.252;2023-05-23T07:03:22;101187.03;;;24.11;52.56
38786;BME280;24535;45.508;12.252;2023-05-23T07:05:47;101189.75;;;24.26;52.57
38786;BME280;24535;45.508;12.252;2023-05-23T07:11:16;101188.88;;;24.72;51.35
38786;BME280;24535;45.508;12.252;2023-05-23T07:13:41;101191.97;;;24.83;51.21
38786;BME280;24535;45.508;12.252;2023-05-23T07:16:06;101187.00;;;24.87;50.84
38786;BME280;24535;45.508;12.252;2023-05-23T07:18:32;101180.16;;;24.84;50.85
38786;BME280;24535;45.508;12.252;2023-05-23T07:20:57;101180.50;;;24.81;50.89
38786;BME280;24535;45.508;12.252;2023-05-23T07:23:22;101181.91;;;24.77;51.13
38786;BME280;24535;45.508;12.252;2023-05-23T07:25:51;101175.22;;;24.73;51.07
38786;BME280;24535;45.508;12.252;2023-05-23T07:28:16;101173.91;;;24.69;50.96
38786;BME280;24535;45.508;12.252;2023-05-23T07:30:41;101181.53;;;24.65;51.16
38786;BME280;24535;45.508;12.252;2023-05-23T07:33:07;101181.88;;;24.62;51.25
38786;BME280;24535;45.508;12.252;2023-05-23T07:35:32;101175.66;;;24.62;51.50
38786;BME280;24535;45.508;12.252;2023-05-23T07:43:31;101172.03;;;24.70;51.49
38786;BME280;24535;45.508;12.252;2023-05-23T07:45:57;101171.41;;;24.82;51.20
38786;BME280;24535;45.508;12.252;2023-05-23T07:48:22;101171.25;;;25.13;51.90
38786;BME280;24535;45.508;12.252;2023-05-23T07:50:47;101161.00;;;25.60;50.78
38786;BME280;24535;45.508;12.252;2023-05-23T07:53:19;101168.44;;;26.16;50.01
38786;BME280;24535;45.508;12.252;2023-05-23T07:58:10;101160.88;;;27.23;48.27
38786;BME280;24535;45.508;12.252;2023-05-23T08:00:37;101160.41;;;27.68;47.40
38786;BME280;24535;45.508;12.252;2023-05-23T08:03:03;101159.44;;;28.08;46.69
38786;BME280;24535;45.508;12.252;2023-05-23T08:05:28;101170.94;;;28.37;45.80
38786;BME280;24535;45.508;12.252;2023-05-23T08:07:53;101168.22;;;28.57;45.39
38786;BME280;24535;45.508;12.252;2023-05-23T08:10:19;101164.19;;;28.79;45.27
38786;BME280;24535;45.508;12.252;2023-05-23T08:12:44;101176.31;;;28.97;45.17
38786;BME280;24535;45.508;12.252;2023-05-23T08:17:47;101170.16;;;29.21;43.85
38786;BME280;24535;45.508;12.252;2023-05-23T08:22:47;101170.66;;;29.50;44.23
38786;BME280;24535;45.508;12.252;2023-05-23T08:25:13;101179.81;;;29.62;43.86
38786;BME280;24535;45.508;12.252;2023-05-23T08:27:38;101172.78;;;29.79;43.32
38786;BME280;24535;45.508;12.252;2023-05-23T08:30:03;101173.50;;;30.00;42.81
38786;BME280;24535;45.508;12.252;2023-05-23T08:32:30;101174.03;;;30.15;42.53
38786;BME280;24535;45.508;12.252;2023-05-23T08:57:46;101170.69;;;30.63;40.80
38786;BME280;24535;45.508;12.252;2023-05-23T09:09:08;101173.59;;;30.18;40.81
38786;BME280;24535;45.508;12.252;2023-05-23T09:11:45;101159.47;;;30.03;40.94
38786;BME280;24535;45.508;12.252;2023-05-23T09:14:11;101161.03;;;29.86;41.34
38786;BME280;24535;45.508;12.252;2023-05-23T09:16:38;101159.31;;;29.66;41.65
38786;BME280;24535;45.508;12.252;2023-05-23T09:22:01;101161.53;;;29.31;41.54
38786;BME280;24535;45.508;12.252;2023-05-23T09:26:51;101157.31;;;28.97;42.42
38786;BME280;24535;45.508;12.252;2023-05-23T09:29:20;101156.06;;;28.79;42.95
38786;BME280;24535;45.508;12.252;2023-05-23T09:34:29;101148.81;;;28.47;43.41
38786;BME280;24535;45.508;12.252;2023-05-23T09:50:36;101135.78;;;27.63;44.71
38786;BME280;24535;45.508;12.252;2023-05-23T09:53:02;101131.84;;;27.52;44.91
38786;BME280;24535;45.508;12.252;2023-05-23T09:55:27;101137.44;;;27.44;45.09
38786;BME280;24535;45.508;12.252;2023-05-23T09:57:53;101137.81;;;27.34;45.37
38786;BME280;24535;45.508;12.252;2023-05-23T10:00:22;101137.16;;;27.25;45.54
38786;BME280;24535;45.508;12.252;2023-05-23T10:05:45;101137.31;;;27.10;45.90
38786;BME280;24535;45.508;12.252;2023-05-23T10:19:02;101136.28;;;26.77;46.75
38786;BME280;24535;45.508;12.252;2023-05-23T10:21:32;101133.56;;;26.70;46.84
38786;BME280;24535;45.508;12.252;2023-05-23T10:26:35;101133.88;;;26.60;47.08
38786;BME280;24535;45.508;12.252;2023-05-23T10:49:44;101103.56;;;26.37;48.09
38786;BME280;24535;45.508;12.252;2023-05-23T10:52:12;101109.16;;;26.35;47.95
38786;BME280;24535;45.508;12.252;2023-05-23T10:57:40;101105.84;;;26.33;48.15
38786;BME280;24535;45.508;12.252;2023-05-23T11:06:28;101101.88;;;26.29;48.85
38786;BME280;24535;45.508;12.252;2023-05-23T11:09:00;101110.16;;;26.28;48.92
38786;BME280;24535;45.508;12.252;2023-05-23T11:14:10;101109.53;;;26.26;48.97
38786;BME280;24535;45.508;12.252;2023-05-23T11:22:09;101097.69;;;26.27;49.51
38786;BME280;24535;45.508;12.252;2023-05-23T11:30:30;101096.84;;;26.26;49.46
38786;BME280;24535;45.508;12.252;2023-05-23T11:43:30;101096.56;;;26.14;49.71
38786;BME280;24535;45.508;12.252;2023-05-23T11:46:06;101082.38;;;26.12;49.65
38786;BME280;24535;45.508;12.252;2023-05-23T11:48:31;101090.91;;;26.09;49.28
38786;BME280;24535;45.508;12.252;2023-05-23T11:56:07;101091.47;;;26.05;49.84
38786;BME280;24535;45.508;12.252;2023-05-23T11:58:39;101085.25;;;26.04;49.63
38786;BME280;24535;45.508;12.252;2023-05-23T12:01:08;101085.44;;;26.03;49.96
38786;BME280;24535;45.508;12.252;2023-05-23T12:06:33;101077.72;;;26.00;49.98
38786;BME280;24535;45.508;12.252;2023-05-23T12:08:59;101074.66;;;26.03;50.09
38786;BME280;24535;45.508;12.252;2023-05-23T12:11:24;101064.66;;;26.03;50.04
38786;BME280;24535;45.508;12.252;2023-05-23T12:13:51;101060.09;;;26.04;49.69
38786;BME280;24535;45.508;12.252;2023-05-23T12:16:23;101065.72;;;26.02;50.25
38786;BME280;24535;45.508;12.252;2023-05-23T12:18:48;101067.16;;;26.05;49.95
38786;BME280;24535;45.508;12.252;2023-05-23T12:21:13;101057.63;;;26.02;50.00
38786;BME280;24535;45.508;12.252;2023-05-23T12:23:39;101056.78;;;26.02;50.02
38786;BME280;24535;45.508;12.252;2023-05-23T12:29:08;101054.22;;;25.94;49.93
38786;BME280;24535;45.508;12.252;2023-05-23T12:31:33;101050.88;;;25.92;50.30
38786;BME280;24535;45.508;12.252;2023-05-23T12:36:40;101042.59;;;25.93;50.38
38786;BME280;24535;45.508;12.252;2023-05-23T12:39:06;101046.97;;;25.94;50.18
38786;BME280;24535;45.508;12.252;2023-05-23T12:44:23;101040.75;;;26.00;50.23
38786;BME280;24535;45.508;12.252;2023-05-23T12:46:54;101048.47;;;26.03;50.49
38786;BME280;24535;45.508;12.252;2023-05-23T12:49:19;101045.56;;;26.05;50.40
38786;BME280;24535;45.508;12.252;2023-05-23T12:51:45;101036.25;;;26.07;50.31
38786;BME280;24535;45.508;12.252;2023-05-23T12:54:11;101044.13;;;26.09;50.52
38786;BME280;24535;45.508;12.252;2023-05-23T12:56:36;101045.00;;;26.09;50.36
38786;BME280;24535;45.508;12.252;2023-05-23T13:07:50;101046.28;;;26.13;50.90
38786;BME280;24535;45.508;12.252;2023-05-23T13:13:24;101030.91;;;26.14;50.51
38786;BME280;24535;45.508;12.252;2023-05-23T13:15:50;101024.47;;;26.15;50.57
38786;BME280;24535;45.508;12.252;2023-05-23T13:21:19;101025.09;;;26.17;50.95
38786;BME280;24535;45.508;12.252;2023-05-23T13:26:19;101019.72;;;26.17;50.89
38786;BME280;24535;45.508;12.252;2023-05-23T13:28:44;101023.03;;;26.19;50.64
38786;BME280;24535;45.508;12.252;2023-05-23T13:31:10;101013.25;;;26.18;50.77
38786;BME280;24535;45.508;12.252;2023-05-23T13:33:35;101014.31;;;26.17;50.75
38786;BME280;24535;45.508;12.252;2023-05-23T13:36:02;101006.19;;;26.17;50.97
38786;BME280;24535;45.508;12.252;2023-05-23T13:38:27;100998.72;;;26.19;51.19
38786;BME280;24535;45.508;12.252;2023-05-23T13:40:54;100997.69;;;26.20;51.14
38786;BME280;24535;45.508;12.252;2023-05-23T13:43:20;101003.06;;;26.20;51.01
38786;BME280;24535;45.508;12.252;2023-05-23T13:45:46;101002.06;;;26.21;50.77
38786;BME280;24535;45.508;12.252;2023-05-23T13:48:11;100995.63;;;26.22;50.92
38786;BME280;24535;45.508;12.252;2023-05-23T13:50:36;100998.31;;;26.22;51.30
38786;BME280;24535;45.508;12.252;2023-05-23T13:53:02;100991.66;;;26.25;51.01
38786;BME280;24535;45.508;12.252;2023-05-23T13:55:27;100992.53;;;26.25;50.89
38786;BME280;24535;45.508;12.252;2023-05-23T13:57:53;100995.25;;;26.25;50.89
38786;BME280;24535;45.508;12.252;2023-05-23T14:00:18;101001.47;;;26.26;50.99
38786;BME280;24535;45.508;12.252;2023-05-23T14:02:44;100995.03;;;26.27;50.80
38786;BME280;24535;45.508;12.252;2023-05-23T14:05:09;101003.97;;;26.27;51.31
38786;BME280;24535;45.508;12.252;2023-05-23T14:07:34;100998.56;;;26.27;51.07
38786;BME280;24535;45.508;12.252;2023-05-23T14:10:00;101003.75;;;26.29;51.16
38786;BME280;24535;45.508;12.252;2023-05-23T14:12:25;101007.09;;;26.31;50.95
38786;BME280;24535;45.508;12.252;2023-05-23T14:14:51;101007.31;;;26.29;50.97
38786;BME280;24535;45.508;12.252;2023-05-23T14:17:16;101008.13;;;26.30;51.07
38786;BME280;24535;45.508;12.252;2023-05-23T14:19:42;101011.47;;;26.32;50.70
38786;BME280;24535;45.508;12.252;2023-05-23T14:22:07;101007.94;;;26.31;50.95
38786;BME280;24535;45.508;12.252;2023-05-23T14:24:32;101009.59;;;26.32;50.96
38786;BME280;24535;45.508;12.252;2023-05-23T14:26:58;101008.59;;;26.33;50.88
38786;BME280;24535;45.508;12.252;2023-05-23T14:29:25;100999.63;;;26.33;50.86
38786;BME280;24535;45.508;12.252;2023-05-23T14:31:50;101004.84;;;26.34;50.83
38786;BME280;24535;45.508;12.252;2023-05-23T14:34:16;101000.47;;;26.33;50.87
38786;BME280;24535;45.508;12.252;2023-05-23T14:36:41;101000.06;;;26.36;50.76
38786;BME280;24535;45.508;12.252;2023-05-23T14:39:07;101006.09;;;26.38;50.54
38786;BME280;24535;45.508;12.252;2023-05-23T14:41:33;101006.09;;;26.38;50.66
38786;BME280;24535;45.508;12.252;2023-05-23T14:43:58;101008.59;;;26.40;50.61
38786;BME280;24535;45.508;12.252;2023-05-23T14:46:23;101013.16;;;26.39;50.52
38786;BME280;24535;45.508;12.252;2023-05-23T14:48:49;101010.47;;;26.39;50.41
38786;BME280;24535;45.508;12.252;2023-05-23T14:54:04;101005.28;;;26.38;50.51
38786;BME280;24535;45.508;12.252;2023-05-23T14:56:31;101009.63;;;26.39;50.66
38786;BME280;24535;45.508;12.252;2023-05-23T14:58:56;101009.84;;;26.37;50.66
38786;BME280;24535;45.508;12.252;2023-05-23T15:01:22;101003.78;;;26.35;50.76
38786;BME280;24535;45.508;12.252;2023-05-23T15:09:11;101004.84;;;26.34;50.50
38786;BME280;24535;45.508;12.252;2023-05-23T15:11:36;101005.47;;;26.36;50.97
38786;BME280;24535;45.508;12.252;2023-05-23T15:14:11;100993.81;;;26.36;50.90
38786;BME280;24535;45.508;12.252;2023-05-23T15:16:37;100992.78;;;26.37;50.66
38786;BME280;24535;45.508;12.252;2023-05-23T15:19:02;100998.59;;;26.34;51.06
38786;BME280;24535;45.508;12.252;2023-05-23T15:21:28;100987.78;;;26.34;50.77
38786;BME280;24535;45.508;12.252;2023-05-23T15:23:54;100998.19;;;26.37;50.64
38786;BME280;24535;45.508;12.252;2023-05-23T15:26:20;100989.25;;;26.36;50.76
38786;BME280;24535;45.508;12.252;2023-05-23T15:28:45;100989.25;;;26.36;50.82
38786;BME280;24535;45.508;12.252;2023-05-23T15:31:10;100990.50;;;26.34;50.94
38786;BME280;24535;45.508;12.252;2023-05-23T15:33:36;100985.09;;;26.34;51.20
38786;BME280;24535;45.508;12.252;2023-05-23T15:36:01;100989.66;;;26.33;50.70
38786;BME280;24535;45.508;12.252;2023-05-23T15:38:26;100982.78;;;26.31;50.81
38786;BME280;24535;45.508;12.252;2023-05-23T15:40:52;100982.78;;;26.31;50.86
38786;BME280;24535;45.508;12.252;2023-05-23T15:43:19;100992.13;;;26.28;50.75
38786;BME280;24535;45.508;12.252;2023-05-23T15:45:44;100987.53;;;26.29;51.21
38786;BME280;24535;45.508;12.252;2023-05-23T15:48:10;100985.06;;;26.27;50.97
38786;BME280;24535;45.508;12.252;2023-05-23T15:50:38;100990.44;;;26.27;51.28
38786;BME280;24535;45.508;12.252;2023-05-23T15:53:03;100979.66;;;26.27;51.30
38786;BME280;24535;45.508;12.252;2023-05-23T15:55:29;100986.09;;;26.26;51.02
38786;BME280;24535;45.508;12.252;2023-05-23T15:57:55;100995.25;;;26.25;51.18
38786;BME280;24535;45.508;12.252;2023-05-23T16:03:03;100985.44;;;26.24;50.99
38786;BME280;24535;45.508;12.252;2023-05-23T16:05:28;100986.47;;;26.23;51.20
38786;BME280;24535;45.508;12.252;2023-05-23T16:07:54;100985.44;;;26.24;51.01
38786;BME280;24535;45.508;12.252;2023-05-23T16:10:19;100983.78;;;26.23;51.36
38786;BME280;24535;45.508;12.252;2023-05-23T16:12:45;100988.56;;;26.21;51.46
38786;BME280;24535;45.508;12.252;2023-05-23T16:15:10;100975.88;;;26.22;51.13
38786;BME280;24535;45.508;12.252;2023-05-23T16:17:35;100985.88;;;26.21;51.27
38786;BME280;24535;45.508;12.252;2023-05-23T16:20:04;100976.28;;;26.19;51.36
38786;BME280;24535;45.508;12.252;2023-05-23T16:22:30;100981.88;;;26.17;51.47
38786;BME280;24535;45.508;12.252;2023-05-23T16:27:39;100973.38;;;26.20;51.18
38786;BME280;24535;45.508;12.252;2023-05-23T16:30:04;100981.28;;;26.22;51.60
38786;BME280;24535;45.508;12.252;2023-05-23T16:32:30;100985.22;;;26.19;51.63
38786;BME280;24535;45.508;12.252;2023-05-23T16:34:55;100975.44;;;26.18;51.56
38786;BME280;24535;45.508;12.252;2023-05-23T16:37:20;100987.91;;;26.19;51.63
38786;BME280;24535;45.508;12.252;2023-05-23T16:42:36;100985.88;;;26.21;51.53
38786;BME280;24535;45.508;12.252;2023-05-23T16:45:02;100990.81;;;26.18;51.50
38786;BME280;24535;45.508;12.252;2023-05-23T16:54:02;100992.50;;;26.19;51.20
38786;BME280;24535;45.508;12.252;2023-05-23T16:56:27;100993.53;;;26.18;51.54
38786;BME280;24535;45.508;12.252;2023-05-23T17:01:49;100992.25;;;26.13;51.68
38786;BME280;24535;45.508;12.252;2023-05-23T17:04:15;100995.13;;;26.12;51.82
38786;BME280;24535;45.508;12.252;2023-05-23T17:06:40;100991.59;;;26.11;51.95
38786;BME280;24535;45.508;12.252;2023-05-23T17:15:18;100995.72;;;26.07;51.71
38786;BME280;24535;45.508;12.252;2023-05-23T17:17:46;100994.06;;;26.06;51.98
38786;BME280;24535;45.508;12.252;2023-05-23T17:23:02;100999.03;;;26.03;51.84
38786;BME280;24535;45.508;12.252;2023-05-23T17:25:27;100997.38;;;26.02;51.91
38786;BME280;24535;45.508;12.252;2023-05-23T17:27:55;101009.84;;;26.03;51.95
38786;BME280;24535;45.508;12.252;2023-05-23T17:33:24;101004.81;;;26.00;51.96
38786;BME280;24535;45.508;12.252;2023-05-23T17:35:49;101014.78;;;25.99;52.15
38786;BME280;24535;45.508;12.252;2023-05-23T17:38:14;101017.69;;;25.98;52.41
38786;BME280;24535;45.508;12.252;2023-05-23T17:46:18;101018.22;;;25.86;52.43
38786;BME280;24535;45.508;12.252;2023-05-23T17:48:44;101017.41;;;25.86;52.89